Time;durP1;ratioP1;P1;durP2;ratioP2;P2;SDS_P1;SDS_P2;PMS_P1;PMS_P2;Temp;Humidity;BMP_temperature;BMP_pressure;BME280_temperature;BME280_humidity;BME280_pressure;Samples;Min_cycle;Max_cycle;Signal;HPM_P1;HPM_P2
2022/06/04 00:00:08;;;;;;;2.88;1.45;;;;;;;-144.94;47.78;76408.66;5053461;28;20480;-79
2022/06/04 00:02:39;;;;;;;3.67;1.40;;;;;;;-144.94;47.74;76408.66;5053649;28;20029;-79
2022/06/04 00:05:06;;;;;;;4.13;1.48;;;;;;;-144.94;47.95;76414.81;5053513;28;20051;-80
2022/06/04 00:07:32;;;;;;;4.30;1.50;;;;;;;-144.94;48.04;76425.13;5053749;28;20025;-81
2022/06/04 00:15:29;;;;;;;4.57;1.55;;;;;;;-144.94;48.29;76425.13;5052652;28;20095;-80
2022/06/04 00:17:56;;;;;;;4.50;1.60;;;;;;;-144.94;48.38;76425.13;5035597;28;20079;-80
2022/06/04 00:20:21;;;;;;;;;;;;;;;-144.94;48.55;76427.19;5053924;28;20051;-81
2022/06/04 00:22:47;;;;;;;5.05;1.55;;;;;;;-144.94;48.59;76437.47;5053376;28;20434;-80
2022/06/04 00:25:14;;;;;;;3.85;1.50;;;;;;;-144.94;49.09;76447.75;5053273;28;20036;-80
2022/06/04 00:27:40;;;;;;;3.33;1.50;;;;;;;-144.94;48.77;76437.47;5035366;28;20033;-80
2022/06/04 00:30:07;;;;;;;6.25;1.50;;;;;;;-144.94;48.90;76443.66;5053278;28;20033;-79
2022/06/04 00:32:37;;;;;;;3.60;1.65;;;;;;;-144.94;48.79;76433.34;5035255;28;20487;-80
2022/06/04 00:35:04;;;;;;;5.57;1.52;;;;;;;-144.94;48.97;76439.53;5052773;28;20032;-79
2022/06/04 00:37:34;;;;;;;3.53;1.55;;;;;;;-144.94;49.36;76464.22;5053187;28;20029;-79
2022/06/04 00:40:00;;;;;;;3.20;1.40;;;;;;;-144.94;49.59;76474.53;5053480;28;20113;-79
2022/06/04 00:42:26;;;;;;;3.40;1.40;;;;;;;-144.94;49.63;76482.75;5053207;28;20814;-79
2022/06/04 00:45:25;;;;;;;3.15;1.40;;;;;;;-144.94;49.74;76472.47;5034912;28;20544;-79
2022/06/04 00:47:51;;;;;;;5.35;1.88;;;;;;;-144.94;49.91;76488.94;5052981;28;20029;-77
2022/06/04 00:50:21;;;;;;;3.25;1.40;;;;;;;-144.94;49.74;76480.69;5035312;28;20414;-80
2022/06/04 00:52:49;;;;;;;3.10;1.50;;;;;;;-144.94;50.18;76491.00;5035009;28;20068;-79
2022/06/04 00:55:16;;;;;;;3.50;1.67;;;;;;;-144.94;50.02;76507.47;5052726;28;20033;-78
2022/06/04 00:57:48;;;;;;;3.60;1.40;;;;;;;-144.94;50.51;76521.88;5034937;28;20029;-79
2022/06/04 01:00:26;;;;;;;2.83;1.35;;;;;;;-144.94;50.88;76536.28;5053425;28;20039;-79
2022/06/04 01:03:03;;;;;;;3.22;1.48;;;;;;;-144.94;51.35;76552.75;5052901;28;20108;-78
2022/06/04 01:05:48;;;;;;;;;;;;;;;-144.94;51.56;76556.88;5035476;28;20111;-80
2022/06/04 01:08:34;;;;;;;6.03;1.70;;;;;;;-144.94;51.77;76563.06;5053073;28;19960;-79
2022/06/04 01:11:15;;;;;;;4.15;1.83;;;;;;;-144.94;51.79;76575.41;5034612;28;20036;-79
2022/06/04 01:14:18;;;;;;;4.28;1.60;;;;;;;-144.94;51.91;76565.13;5052523;28;20052;-79
2022/06/04 01:17:11;;;;;;;6.82;2.05;;;;;;;-144.94;52.02;76569.22;5052669;28;20428;-80
2022/06/04 01:20:15;;;;;;;6.03;1.83;;;;;;;-144.94;52.35;76581.59;5052494;28;20025;-80
2022/06/04 01:23:20;;;;;;;3.35;1.52;;;;;;;-144.94;52.56;76589.81;5021393;28;20041;-80
2022/06/04 01:26:03;;;;;;;6.85;1.95;;;;;;;-144.94;52.52;76606.28;5052392;28;20037;-79
2022/06/04 01:28:40;;;;;;;4.32;2.03;;;;;;;-144.94;52.65;76610.41;5056381;28;20415;-79
2022/06/04 01:31:08;;;;;;;3.70;1.58;;;;;;;-144.94;52.56;76602.16;5056520;28;20071;-80
2022/06/04 01:33:51;;;;;;;3.85;1.65;;;;;;;-144.94;52.86;76616.59;5056435;28;20048;-80
2022/06/04 01:36:19;;;;;;;5.38;1.77;;;;;;;-144.94;52.87;76622.75;5056275;28;20483;-80
2022/06/04 01:38:55;;;;;;;5.38;1.83;;;;;;;-144.94;53.01;76618.63;5056536;28;20037;-79
2022/06/04 01:41:33;;;;;;;5.57;1.83;;;;;;;-144.94;53.22;76622.75;5056386;28;20033;-79
2022/06/04 01:44:19;;;;;;;3.47;1.77;;;;;;;-144.94;53.32;76647.47;5038400;28;20032;-80
2022/06/04 01:46:48;;;;;;;3.85;1.45;;;;;;;-144.94;53.40;76639.22;5056082;28;20028;-80
2022/06/04 01:49:32;;;;;;;4.25;1.88;;;;;;;-144.94;53.51;76647.47;5056070;28;20487;-79
2022/06/04 01:52:11;;;;;;;4.30;2.13;;;;;;;-144.94;53.85;76657.75;5056183;28;20472;-79
2022/06/04 01:54:52;;;;;;;4.32;2.05;;;;;;;-144.94;53.94;76655.69;5056170;28;20112;-80
2022/06/04 01:57:25;;;;;;;4.50;2.03;;;;;;;-144.94;54.00;76655.69;5056238;28;20075;-79
2022/06/04 01:59:55;;;;;;;4.00;1.75;;;;;;;-144.94;54.09;76653.63;5055906;28;20587;-79
2022/06/04 02:02:40;;;;;;;5.60;1.90;;;;;;;-144.94;53.79;76641.28;5055864;28;20029;-79
2022/06/04 02:05:11;;;;;;;4.35;2.20;;;;;;;-144.94;53.94;76661.88;5055729;28;20035;-78
2022/06/04 02:07:41;;;;;;;4.00;2.00;;;;;;;-144.94;53.86;76657.75;5055645;28;20464;-79
2022/06/04 02:10:27;;;;;;;3.90;1.98;;;;;;;-144.94;53.86;76653.63;5055558;28;20135;-80
2022/06/04 02:12:57;;;;;;;3.33;1.80;;;;;;;-144.94;54.23;76676.28;5038053;28;20033;-80
2022/06/04 02:15:28;;;;;;;4.38;2.00;;;;;;;-144.94;53.94;76670.09;5055941;28;20037;-80
2022/06/04 02:17:57;;;;;;;5.68;2.20;;;;;;;-144.94;54.18;76674.22;5055521;28;20035;-80
2022/06/04 02:20:23;;;;;;;5.68;1.80;;;;;;;-144.94;54.45;76674.22;5055680;28;20031;-79
2022/06/04 02:22:49;;;;;;;5.75;2.38;;;;;;;-144.94;54.35;76680.41;5055884;28;20405;-79
2022/06/04 02:25:15;;;;;;;4.68;2.42;;;;;;;-144.94;54.30;76682.47;5055561;28;20044;-79
2022/06/04 02:27:44;;;;;;;4.28;2.13;;;;;;;-144.94;54.35;76686.59;5037459;28;20037;-80
2022/06/04 02:30:12;;;;;;;6.88;2.10;;;;;;;-144.94;54.54;76692.75;5055336;28;20087;-79
2022/06/04 02:33:11;;;;;;;6.78;2.30;;;;;;;-144.94;54.69;76696.88;5037764;28;20102;-80
2022/06/04 02:35:54;;;;;;;5.43;2.00;;;;;;;-144.94;54.67;76698.94;5055330;28;20048;-79
2022/06/04 02:38:35;;;;;;;4.28;2.00;;;;;;;-144.94;54.85;76705.09;5054306;28;20159;-78
2022/06/04 02:41:28;;;;;;;4.70;2.58;;;;;;;-144.94;54.76;76701.00;5055122;28;20029;-79
2022/06/04 02:43:59;;;;;;;4.20;1.83;;;;;;;-144.94;54.63;76703.06;5032498;28;20048;-79
2022/06/04 02:46:32;;;;;;;4.93;2.00;;;;;;;-144.94;54.77;76703.06;5037043;28;20021;-78
2022/06/04 02:49:03;;;;;;;4.50;2.25;;;;;;;-144.94;54.81;76709.22;5055142;28;20098;-79
2022/06/04 02:52:01;;;;;;;4.28;2.03;;;;;;;-144.94;54.97;76705.09;5054947;28;20438;-79
2022/06/04 02:54:39;;;;;;;4.03;2.03;;;;;;;-144.94;54.65;76698.94;5034050;28;20075;-79
2022/06/04 02:57:14;;;;;;;4.07;1.80;;;;;;;-144.94;54.93;76717.47;5036476;28;20108;-79
2022/06/04 02:59:44;;;;;;;5.18;2.55;;;;;;;-144.94;55.01;76717.47;5054908;28;20099;-78
2022/06/04 03:02:14;;;;;;;8.20;2.10;;;;;;;-144.94;55.07;76725.69;5054748;28;20063;-79
2022/06/04 03:04:51;;;;;;;4.32;2.00;;;;;;;-144.94;55.04;76719.53;5036726;28;20025;-79
2022/06/04 03:07:21;;;;;;;5.60;2.15;;;;;;;-144.94;55.13;76727.75;5054911;28;20421;-78
2022/06/04 03:09:51;;;;;;;4.32;2.10;;;;;;;-144.94;55.21;76731.88;5054612;28;20033;-80
2022/06/04 03:12:16;;;;;;;6.45;2.20;;;;;;;-144.94;55.38;76731.88;5055126;28;20028;-80
2022/06/04 03:14:57;;;;;;;4.70;2.43;;;;;;;-144.94;55.34;76719.53;5054876;28;20494;-79
2022/06/04 03:17:22;;;;;;;8.40;3.13;;;;;;;-144.94;55.48;76721.59;5054497;28;20483;-80
2022/06/04 03:19:50;;;;;;;5.13;2.60;;;;;;;-144.94;55.44;76719.53;5054502;28;20037;-79
2022/06/04 03:22:17;;;;;;;4.43;2.28;;;;;;;-144.94;55.53;76719.53;5036477;28;20615;-79
2022/06/04 03:24:42;;;;;;;4.60;1.90;;;;;;;-144.94;55.42;76713.34;5036026;28;20041;-80
2022/06/04 03:27:08;;;;;;;4.53;1.70;;;;;;;-144.94;55.31;76698.94;5054564;28;20037;-80
2022/06/04 03:29:33;;;;;;;4.53;2.20;;;;;;;-144.94;55.42;76719.53;5054762;28;20611;-80
2022/06/04 03:31:58;;;;;;;5.78;2.83;;;;;;;-144.94;55.42;76719.53;5054139;28;20271;-79
2022/06/04 03:34:27;;;;;;;4.05;1.95;;;;;;;-144.94;55.48;76713.34;5054347;28;20171;-79
2022/06/04 03:36:52;;;;;;;4.50;1.95;;;;;;;-144.94;55.53;76707.16;5054258;28;20033;-79
2022/06/04 03:39:17;;;;;;;4.93;1.93;;;;;;;-144.94;55.69;76711.28;5036398;28;20078;-80
2022/06/04 03:41:43;;;;;;;4.40;1.88;;;;;;;-144.94;55.65;76711.28;5054225;28;20110;-79
2022/06/04 03:44:09;;;;;;;4.07;2.03;;;;;;;-144.94;55.60;76723.63;5053837;28;20083;-78
2022/06/04 03:46:37;;;;;;;4.30;2.10;;;;;;;-144.94;55.73;76736.00;5053812;28;20028;-79
2022/06/04 03:49:02;;;;;;;5.97;2.15;;;;;;;-144.94;55.83;76754.53;5036176;28;20029;-78
2022/06/04 03:51:31;;;;;;;5.43;2.70;;;;;;;-144.94;55.97;76762.75;5054150;28;20051;-79
2022/06/04 03:53:59;;;;;;;4.68;2.35;;;;;;;-144.94;55.88;76768.94;5053492;28;20029;-78
2022/06/04 03:56:25;;;;;;;6.00;2.10;;;;;;;-144.94;56.29;76766.88;5053772;28;20029;-79
2022/06/04 03:58:56;;;;;;;4.25;2.17;;;;;;;-144.94;56.05;76750.41;5053910;28;20458;-79
2022/06/04 04:01:25;;;;;;;4.78;2.03;;;;;;;-144.94;56.04;76752.47;5035361;28;20036;-79
2022/06/04 04:03:51;;;;;;;5.00;1.90;;;;;;;-144.94;56.06;76752.47;5053759;28;20071;-79
2022/06/04 04:06:23;;;;;;;5.60;2.20;;;;;;;-144.94;56.11;76779.22;5053400;28;20373;-78
2022/06/04 04:08:49;;;;;;;4.00;1.80;;;;;;;-144.94;56.02;76779.22;5053540;28;20041;-80
2022/06/04 04:11:19;;;;;;;6.45;2.58;;;;;;;-144.94;55.99;76771.00;5053645;28;20039;-79
2022/06/04 04:13:44;;;;;;;3.85;1.95;;;;;;;-144.94;55.81;76777.16;5053353;28;20078;-79
2022/06/04 04:16:11;;;;;;;4.55;2.15;;;;;;;-144.94;55.81;76777.16;5053263;28;20463;-78
2022/06/04 04:18:37;;;;;;;9.18;2.25;;;;;;;-144.94;56.23;76785.41;5053365;28;20463;-79
2022/06/04 04:21:05;;;;;;;7.10;1.95;;;;;;;-144.94;56.08;76781.28;5053421;28;20021;-78
2022/06/04 04:23:34;;;;;;;4.75;2.28;;;;;;;-144.94;56.43;76793.63;5052805;28;20049;-80
2022/06/04 04:26:04;;;;;;;5.03;2.10;;;;;;;-144.94;56.32;76789.53;5053153;28;20025;-79
2022/06/04 04:28:30;;;;;;;8.65;2.08;;;;;;;-144.94;56.36;76789.53;5053348;28;20089;-78
2022/06/04 04:30:56;;;;;;;5.22;2.35;;;;;;;-144.94;56.34;76793.63;5053182;28;20444;-78
2022/06/04 04:33:22;;;;;;;4.15;2.10;;;;;;;-144.94;56.26;76793.63;5052940;28;20108;-79
2022/06/04 04:35:48;;;;;;;4.40;2.28;;;;;;;-144.94;56.41;76810.13;5052765;28;20045;-80
2022/06/04 04:38:15;;;;;;;5.38;2.20;;;;;;;-144.94;56.57;76806.00;5035297;28;20052;-78
2022/06/04 04:40:42;;;;;;;4.15;2.25;;;;;;;-144.94;56.47;76814.22;5052806;28;20029;-79
2022/06/04 04:43:11;;;;;;;6.30;2.17;;;;;;;-144.94;56.38;76806.00;5053102;28;20079;-80
2022/06/04 04:45:37;;;;;;;5.38;2.60;;;;;;;-144.94;56.64;76803.94;5052667;28;20032;-80
2022/06/04 04:48:03;;;;;;;4.03;2.30;;;;;;;-144.94;56.35;76806.00;5053076;28;20029;-80
2022/06/04 04:50:32;;;;;;;4.78;2.13;;;;;;;-144.94;56.50;76806.00;5034884;28;20119;-81
2022/06/04 04:52:59;;;;;;;4.60;2.10;;;;;;;-144.94;56.16;76801.88;5053105;28;20090;-80
2022/06/04 04:55:42;;;;;;;4.30;2.30;;;;;;;-144.94;56.25;76803.94;5034795;28;20029;-79
2022/06/04 04:58:09;;;;;;;4.72;2.10;;;;;;;-144.94;56.18;76803.94;5034823;28;20367;-78
2022/06/04 05:00:37;;;;;;;;;;;;;;;-144.94;56.40;76808.06;5052930;28;20044;-77
2022/06/04 05:03:02;;;;;;;5.25;2.03;;;;;;;-144.94;56.20;76789.53;5052213;28;19908;-80
2022/06/04 05:05:28;;;;;;;4.82;2.35;;;;;;;-144.94;56.09;76779.22;5034199;28;20495;-80
2022/06/04 05:07:54;;;;;;;6.15;2.70;;;;;;;-144.94;56.17;76787.47;5052790;28;20029;-80
2022/06/04 05:10:20;;;;;;;5.13;2.70;;;;;;;-144.94;56.27;76803.94;5034819;28;20087;-79
2022/06/04 05:12:45;;;;;;;5.25;2.30;;;;;;;-144.94;56.36;76806.00;5052360;28;20029;-80
2022/06/04 05:15:16;;;;;;;7.00;2.57;;;;;;;-144.94;56.34;76806.00;5034551;28;20230;-81
2022/06/04 05:17:41;;;;;;;8.38;2.70;;;;;;;-144.94;56.45;76803.94;5034818;28;20275;-81
2022/06/04 05:20:07;;;;;;;5.40;2.63;;;;;;;-144.94;56.39;76810.13;5052469;28;20541;-81
2022/06/04 05:22:33;;;;;;;4.45;2.28;;;;;;;-144.94;56.28;76795.69;5034071;28;20047;-80
2022/06/04 05:24:58;;;;;;;5.40;2.10;;;;;;;-144.94;56.07;76793.63;5052483;28;20041;-79
2022/06/04 05:27:24;;;;;;;5.17;2.60;;;;;;;-144.94;56.04;76795.69;5052187;28;20291;-80
2022/06/04 05:29:52;;;;;;;5.13;2.60;;;;;;;-144.94;56.11;76806.00;5034780;28;20265;-80
2022/06/04 05:32:17;;;;;;;5.20;2.63;;;;;;;-144.94;56.18;76812.16;5052724;28;20040;-80
2022/06/04 05:34:43;;;;;;;5.07;2.57;;;;;;;-144.94;55.98;76812.16;5052279;28;20115;-80
2022/06/04 05:37:47;;;;;;;5.95;2.33;;;;;;;-144.94;56.36;76803.94;5034474;28;20287;-81
2022/06/04 05:40:15;;;;;;;6.28;2.55;;;;;;;-144.94;55.99;76801.88;5052211;28;20028;-79
2022/06/04 05:42:41;;;;;;;5.13;2.22;;;;;;;-144.94;55.83;76795.69;5034127;28;20074;-80
2022/06/04 05:45:08;;;;;;;4.32;2.05;;;;;;;-144.94;55.78;76789.53;5052329;28;20402;-80
2022/06/04 05:47:33;;;;;;;5.63;2.70;;;;;;;-144.94;55.63;76783.34;5051983;28;20071;-81
2022/06/04 05:49:58;;;;;;;5.60;2.37;;;;;;;-144.94;55.33;76783.34;5034513;28;20025;-80
2022/06/04 05:52:24;;;;;;;5.88;2.63;;;;;;;-144.94;55.55;76799.81;5052820;28;20730;-79
2022/06/04 05:54:49;;;;;;;7.40;3.28;;;;;;;-144.94;55.51;76795.69;5052294;28;20056;-81
2022/06/04 05:57:15;;;;;;;6.78;2.58;;;;;;;-144.94;55.44;76795.69;5035314;28;20178;-83
2022/06/04 05:59:44;;;;;;;6.88;2.58;;;;;;;-144.94;55.39;76787.47;5053396;28;20039;-83
2022/06/04 06:02:10;;;;;;;7.45;2.80;;;;;;;-144.94;55.37;76783.34;5035471;28;20033;-81
2022/06/04 06:04:41;;;;;;;5.65;2.60;;;;;;;-144.94;55.30;76771.00;5034500;28;20111;-82
2022/06/04 06:07:12;;;;;;;7.22;2.78;;;;;;;-144.94;54.96;76768.94;5052782;28;20033;-82
2022/06/04 06:09:38;;;;;;;6.28;3.00;;;;;;;-144.94;54.88;76754.53;5052821;28;20040;-80
2022/06/04 06:12:19;;;;;;;7.78;3.08;;;;;;;-144.94;54.64;76744.22;5054206;28;20025;-81
2022/06/04 06:14:58;;;;;;;5.60;2.55;;;;;;;-144.94;54.79;76746.28;5056700;28;20060;-81
2022/06/04 06:17:23;;;;;;;12.55;3.10;;;;;;;-144.94;54.55;76723.63;5038338;28;20044;-79
2022/06/04 06:19:49;;;;;;;5.28;2.35;;;;;;;-144.94;54.34;76736.00;5055347;28;20025;-79
2022/06/04 06:22:37;;;;;;;5.50;2.75;;;;;;;-144.94;54.62;76746.28;5153993;27;20348;-82
2022/06/04 06:25:05;;;;;;;5.97;2.77;;;;;;;-144.94;54.58;76740.09;5158422;27;20068;-84
2022/06/04 06:27:32;;;;;;;6.30;2.90;;;;;;;-144.94;54.29;76727.75;5167760;27;20264;-85
2022/06/04 06:29:57;;;;;;;5.13;2.80;;;;;;;-144.94;54.28;76729.81;5159493;27;20049;-86
2022/06/04 06:32:24;;;;;;;5.55;2.65;;;;;;;-144.94;54.39;76723.63;5154145;27;20026;-82
2022/06/04 06:34:49;;;;;;;6.47;2.97;;;;;;;-144.94;53.61;76686.59;5155842;27;20065;-85
2022/06/04 06:37:15;;;;;;;5.72;2.67;;;;;;;-144.94;53.31;76668.06;5153639;27;20433;-86
2022/06/04 06:39:41;;;;;;;6.53;2.75;;;;;;;-144.94;53.31;76674.22;5153674;27;20061;-86
2022/06/04 06:42:06;;;;;;;4.93;2.78;;;;;;;-144.94;53.37;76668.06;5153127;27;20050;-89
2022/06/04 06:44:32;;;;;;;;;;;;;;;-144.94;52.84;76639.22;5152832;27;20437;-83
2022/06/04 06:46:57;;;;;;;6.47;2.72;;;;;;;-144.94;52.76;76649.53;5150774;27;19907;-84
2022/06/04 06:49:26;;;;;;;6.88;2.40;;;;;;;-144.94;51.94;76596.00;5152242;27;20033;-86
2022/06/04 06:52:00;;;;;;;4.97;2.42;;;;;;;-144.94;51.55;76583.63;5152132;27;20065;-84
2022/06/04 06:54:28;;;;;;;4.97;2.60;;;;;;;-144.94;50.99;76538.34;5150432;27;20137;-86
2022/06/04 06:56:56;;;;;;;5.18;2.72;;;;;;;-144.94;50.42;76521.88;5151452;27;20083;-83
2022/06/04 06:59:23;;;;;;;4.97;2.50;;;;;;;-144.94;50.21;76523.94;5151233;27;20049;-84
2022/06/04 07:01:49;;;;;;;4.85;2.67;;;;;;;-144.94;50.48;76536.28;5150857;27;20038;-82
2022/06/04 07:04:16;;;;;;;6.10;2.40;;;;;;;-144.94;50.16;76521.88;5150058;27;20030;-83
2022/06/04 07:06:44;;;;;;;4.85;2.80;;;;;;;-144.94;50.65;76540.41;5152107;27;20102;-86
2022/06/04 07:09:14;;;;;;;9.18;2.92;;;;;;;-144.94;50.32;76517.75;5152230;27;20031;-84
2022/06/04 07:11:39;;;;;;;5.47;2.97;;;;;;;-144.94;50.22;76519.81;5152124;27;20134;-87
2022/06/04 07:14:05;;;;;;;5.32;2.42;;;;;;;-144.94;50.61;76523.94;5152019;27;20019;-84
2022/06/04 07:16:30;;;;;;;;;;;;;;;-144.94;50.31;76517.75;5152087;27;20042;-87
2022/06/04 07:18:56;;;;;;;5.60;2.67;;;;;;;-144.94;50.20;76515.69;5151733;27;19907;-86
2022/06/04 07:21:21;;;;;;;4.53;2.38;;;;;;;-144.94;50.60;76521.88;5151502;27;20068;-87
2022/06/04 07:23:47;;;;;;;;;;;;;;;-144.94;49.99;76491.00;5151449;27;20034;-87
2022/06/04 07:26:13;;;;;;;5.70;2.40;;;;;;;-144.94;49.95;76488.94;5150423;27;19994;-84
2022/06/04 07:28:40;;;;;;;6.18;2.40;;;;;;;-144.94;50.43;76517.75;5151507;27;20334;-83
2022/06/04 07:31:06;;;;;;;6.57;2.70;;;;;;;-144.94;50.28;76540.41;5151239;27;20035;-83
2022/06/04 07:33:32;;;;;;;4.25;2.28;;;;;;;-144.94;50.40;76515.69;5139200;27;20156;-85
2022/06/04 07:35:59;;;;;;;5.60;2.35;;;;;;;-144.94;50.32;76509.53;5137284;27;20107;-87
2022/06/04 07:38:24;;;;;;;;;;;;;;;-144.94;50.50;76540.41;5137906;27;20110;-85
2022/06/04 07:40:49;;;;;;;8.60;2.60;;;;;;;-144.94;50.30;76523.94;5137431;27;19958;-85
2022/06/04 07:43:15;;;;;;;;;;;;;;;-144.94;50.10;76503.34;5138418;27;20034;-86
2022/06/04 07:45:40;;;;;;;6.28;2.45;;;;;;;-144.94;50.39;76507.47;5140289;27;19993;-82
2022/06/04 07:48:15;;;;;;;;;;;;;;;-144.94;50.13;76501.28;5141621;27;20034;-86
2022/06/04 07:50:40;;;;;;;4.20;2.10;;;;;;;-144.94;49.95;76511.59;5138744;27;19907;-84
2022/06/04 07:53:06;;;;;;;6.85;3.15;;;;;;;-144.94;49.70;76505.41;5138218;27;20033;-83
2022/06/04 07:55:33;;;;;;;5.18;2.85;;;;;;;-144.94;49.96;76513.66;5137566;27;20042;-85
2022/06/04 07:57:58;;;;;;;4.97;2.47;;;;;;;-144.94;49.58;76484.81;5136455;27;20466;-84
2022/06/04 08:00:24;;;;;;;5.63;2.70;;;;;;;-144.94;49.63;76482.75;5137381;27;20027;-83
2022/06/04 08:02:51;;;;;;;;;;;;;;;-144.94;49.56;76472.47;5137780;27;20155;-83
2022/06/04 08:05:17;;;;;;;4.72;2.38;;;;;;;-144.94;49.80;76484.81;5137525;27;19907;-83
2022/06/04 08:07:42;;;;;;;4.70;2.50;;;;;;;-144.94;49.58;76482.75;5137703;27;20043;-85
2022/06/04 08:10:08;;;;;;;;;;;;;;;-144.94;49.67;76464.22;5138146;27;20035;-85
2022/06/04 08:12:47;;;;;;;5.50;2.85;;;;;;;-144.94;49.25;76466.28;5138508;27;20067;-81
2022/06/04 08:15:14;;;;;;;6.40;2.58;;;;;;;-144.94;49.07;76464.22;5136348;27;20031;-83
2022/06/04 08:17:40;;;;;;;6.53;2.78;;;;;;;-144.94;49.45;76472.47;5135290;27;20103;-82
2022/06/04 08:20:06;;;;;;;5.10;2.80;;;;;;;-144.94;49.32;76460.13;5136618;27;20377;-83
2022/06/04 08:22:31;;;;;;;;;;;;;;;-144.94;49.63;76472.47;5136795;27;20552;-82
2022/06/04 08:24:56;;;;;;;6.53;3.20;;;;;;;-144.94;49.29;76470.41;5136888;27;19917;-82
2022/06/04 08:27:23;;;;;;;;;;;;;;;-144.94;49.07;76441.59;5135413;27;20461;-82
2022/06/04 08:29:48;;;;;;;6.85;3.08;;;;;;;-144.94;48.60;76427.19;5136596;27;19911;-80
2022/06/04 08:32:14;;;;;;;7.75;3.33;;;;;;;-144.94;48.10;76390.13;5136432;27;20027;-82
2022/06/04 08:34:39;;;;;;;;;;;;;;;-144.94;48.13;76402.47;5136811;27;20091;-82
2022/06/04 08:37:06;;;;;;;6.70;3.25;;;;;;;-144.94;48.25;76421.00;5136536;27;19934;-79
2022/06/04 08:39:33;;;;;;;5.40;2.88;;;;;;;-144.94;48.85;76443.66;5136002;27;20030;-81
2022/06/04 08:42:13;;;;;;;4.65;2.60;;;;;;;-144.94;48.89;76423.06;5135717;27;20083;-81
2022/06/04 08:44:46;;;;;;;6.65;3.05;;;;;;;-144.94;48.27;76392.19;5134843;27;20103;-80
2022/06/04 08:47:21;;;;;;;5.05;2.90;;;;;;;-144.94;48.09;76375.72;5136085;27;20410;-82
2022/06/04 08:49:48;;;;;;;7.32;2.95;;;;;;;-144.94;47.41;76369.53;5135645;27;20038;-79
2022/06/04 08:52:29;;;;;;;6.82;3.00;;;;;;;-144.94;47.30;76363.34;5135570;27;20462;-81
2022/06/04 08:58:03;;;;;;;5.93;2.97;;;;;;;-144.94;47.15;76336.59;5135978;27;20225;-81
2022/06/04 09:00:41;;;;;;;5.13;2.60;;;;;;;-144.94;47.14;76344.84;5135771;27;20035;-79
2022/06/04 09:03:18;;;;;;;5.22;2.90;;;;;;;-144.94;46.87;76346.88;5134784;27;20038;-79
2022/06/04 09:06:01;;;;;;;7.32;2.90;;;;;;;-144.94;47.23;76367.47;5134630;27;20035;-80
2022/06/04 09:08:41;;;;;;;6.65;3.30;;;;;;;-144.94;47.31;76365.41;5136879;27;20114;-83
2022/06/04 09:11:23;;;;;;;5.63;3.05;;;;;;;-144.94;47.29;76346.88;5135217;27;20034;-81
2022/06/04 09:14:17;;;;;;;6.57;3.00;;;;;;;-144.94;46.69;76336.59;5136693;27;20031;-80
2022/06/04 09:17:05;;;;;;;6.53;3.00;;;;;;;-144.94;46.85;76351.00;5137164;27;20351;-79
2022/06/04 09:19:37;;;;;;;5.57;2.88;;;;;;;-144.94;47.11;76375.72;5135683;27;20043;-79
2022/06/04 09:22:16;;;;;;;6.15;2.78;;;;;;;-144.94;46.94;76355.13;5135982;27;20050;-80
2022/06/04 09:24:42;;;;;;;5.47;2.70;;;;;;;-144.94;47.10;76365.41;5135481;27;20125;-78
2022/06/04 09:27:26;;;;;;;;;;;;;;;-144.94;46.85;76361.31;5134934;27;20462;-81
2022/06/04 09:30:21;;;;;;;6.00;2.70;;;;;;;-144.94;47.17;76361.31;5135974;27;19907;-82
2022/06/04 09:33:20;;;;;;;6.03;2.97;;;;;;;-144.94;47.40;76388.06;5134816;27;20421;-80
2022/06/04 09:35:46;;;;;;;5.72;2.85;;;;;;;-144.94;47.47;76400.41;5136225;27;20027;-81
2022/06/04 09:38:25;;;;;;;;;;;;;;;-144.94;47.12;76357.19;5136436;27;20037;-80
2022/06/04 09:41:18;;;;;;;6.00;3.10;;;;;;;-144.94;46.90;76361.31;5135826;27;19933;-80
2022/06/04 09:44:00;;;;;;;5.80;3.05;;;;;;;-144.94;46.83;76365.41;5136494;27;20031;-78
2022/06/04 09:46:25;;;;;;;4.90;2.60;;;;;;;-144.94;46.92;76375.72;5136482;27;20406;-80
2022/06/04 09:48:52;;;;;;;;;;;;;;;-144.94;46.94;76369.53;5138803;27;20061;-78
2022/06/04 09:51:26;;;;;;;5.88;3.30;;;;;;;-144.94;46.71;76353.06;5140480;27;19989;-81
2022/06/04 09:54:05;;;;;;;8.02;3.38;;;;;;;-144.94;46.87;76369.53;5143805;27;20038;-82
2022/06/04 09:56:34;;;;;;;5.78;2.85;;;;;;;-144.94;47.12;76353.06;5146903;27;20042;-82
2022/06/04 09:59:18;;;;;;;5.18;3.08;;;;;;;-144.94;46.57;76322.19;5144549;27;20027;-81
2022/06/04 10:02:01;;;;;;;6.63;3.13;;;;;;;-144.94;47.01;76344.84;5144490;27;20023;-81
2022/06/04 10:04:48;;;;;;;5.38;3.35;;;;;;;-144.94;46.69;76336.59;5142810;27;20102;-81
2022/06/04 10:07:34;;;;;;;6.30;3.03;;;;;;;-144.94;46.80;76336.59;5139349;27;20075;-83
2022/06/04 10:10:21;;;;;;;6.22;3.20;;;;;;;-144.94;46.48;76324.25;5136619;27;20047;-83
2022/06/04 10:15:34;;;;;;;5.97;3.20;;;;;;;-144.94;46.53;76313.94;5136457;27;20446;-83
2022/06/04 10:18:22;;;;;;;5.63;3.03;;;;;;;-144.94;46.12;76278.97;5136644;27;20167;-82
2022/06/04 10:21:06;;;;;;;5.63;3.15;;;;;;;-144.94;46.32;76295.44;5125406;28;20088;-82
2022/06/04 10:23:42;;;;;;;5.75;3.25;;;;;;;-144.94;46.08;76281.00;5135578;27;20350;-83
2022/06/04 10:26:26;;;;;;;5.47;2.80;;;;;;;-144.94;45.54;76229.53;5136116;27;20043;-83
2022/06/04 10:29:23;;;;;;;7.05;3.45;;;;;;;-144.94;45.01;76231.59;5136125;27;20249;-83
2022/06/04 10:32:25;;;;;;;5.97;3.33;;;;;;;-144.94;44.86;76219.25;5136580;27;20458;-83
2022/06/04 10:35:25;;;;;;;5.95;2.95;;;;;;;-144.94;45.15;76213.09;5135002;28;20429;-82
2022/06/04 10:38:06;;;;;;;6.50;2.90;;;;;;;-144.94;44.64;76190.44;5135133;27;20126;-81
2022/06/04 10:40:44;;;;;;;5.63;2.85;;;;;;;-144.94;44.15;76145.16;5134637;27;20042;-82
2022/06/04 10:43:18;;;;;;;5.63;2.97;;;;;;;-144.94;43.83;76138.97;5135222;27;20046;-83
2022/06/04 10:45:59;;;;;;;5.47;3.17;;;;;;;-144.94;44.20;76155.44;5135661;27;20093;-82
2022/06/04 10:48:52;;;;;;;6.03;3.47;;;;;;;-144.94;44.17;76157.50;5135763;27;20019;-81
2022/06/04 10:51:35;;;;;;;6.03;3.42;;;;;;;-144.94;44.27;76167.78;5136580;28;20031;-82
2022/06/04 10:54:19;;;;;;;6.05;2.88;;;;;;;-144.94;44.10;76138.97;5137885;28;20031;-86
2022/06/04 10:56:56;;;;;;;6.88;3.30;;;;;;;-144.94;43.97;76136.91;5136197;28;20028;-83
2022/06/04 10:59:33;;;;;;;6.82;3.58;;;;;;;-144.94;43.54;76126.63;5135447;27;20070;-80
2022/06/04 11:02:17;;;;;;;;;;;;;;;-144.94;43.85;76149.25;5135232;27;20410;-83
2022/06/04 11:04:52;;;;;;;7.38;3.83;;;;;;;-144.94;43.48;76114.28;5132912;27;19961;-83
2022/06/04 11:07:35;;;;;;;7.05;3.28;;;;;;;-144.94;43.41;76103.97;5134774;27;20390;-82
2022/06/04 11:10:06;;;;;;;8.20;3.67;;;;;;;-144.94;42.93;76079.28;5137864;27;20028;-83
2022/06/04 11:12:45;;;;;;;6.68;3.88;;;;;;;-144.94;43.52;76118.38;5137801;27;20473;-84
2022/06/04 11:15:22;;;;;;;4.93;2.97;;;;;;;-144.94;43.43;76083.38;5137761;27;20045;-82
2022/06/04 11:18:01;;;;;;;6.38;3.67;;;;;;;-144.94;43.00;76062.81;5136456;27;20054;-81
2022/06/04 11:20:42;;;;;;;6.47;3.78;;;;;;;-144.94;42.87;76036.03;5137441;27;20031;-81
2022/06/04 11:23:20;;;;;;;6.38;3.50;;;;;;;-144.94;42.91;76044.28;5137441;27;20051;-83
2022/06/04 11:25:51;;;;;;;7.40;3.75;;;;;;;-144.94;42.81;76027.81;5137610;27;20120;-82
2022/06/04 11:28:24;;;;;;;5.90;3.10;;;;;;;-144.94;41.88;75980.47;5138001;27;20457;-82
2022/06/04 11:31:11;;;;;;;12.43;4.82;;;;;;;-144.94;42.01;76003.09;5138107;27;20190;-83
2022/06/04 11:34:07;;;;;;;10.73;4.85;;;;;;;-144.94;41.75;75982.53;5137270;27;20038;-81
2022/06/04 11:37:06;;;;;;;5.72;3.30;;;;;;;-144.94;41.46;75941.34;5137064;27;20031;-81
2022/06/04 11:39:54;;;;;;;8.30;3.35;;;;;;;-144.94;41.16;75945.47;5137023;27;20031;-78
2022/06/04 11:42:51;;;;;;;5.90;3.70;;;;;;;-144.94;41.55;75941.34;5138116;27;20118;-82
2022/06/04 11:45:40;;;;;;;6.95;3.22;;;;;;;-144.94;40.86;75908.41;5119097;27;20450;-83
2022/06/04 11:48:40;;;;;;;7.53;3.67;;;;;;;-144.94;41.76;75982.53;5137428;27;20087;-82
2022/06/04 11:51:32;;;;;;;6.53;3.72;;;;;;;-144.94;41.46;75941.34;5137158;27;20105;-81
2022/06/04 11:54:09;;;;;;;6.57;3.67;;;;;;;-144.94;41.31;75955.75;5137175;27;20086;-82
2022/06/04 11:57:01;;;;;;;5.18;3.05;;;;;;;-144.94;41.94;75957.81;5136923;27;20035;-82
2022/06/04 11:59:51;;;;;;;6.43;3.50;;;;;;;-144.94;41.22;75937.25;5137005;27;20087;-82